sensor_id;sensor_type;location;lat;lon;timestamp;pressure;altitude;pressure_sealevel;temperature;humidity
74403;BME280;62837;51.082;13.744;2023-09-19T00:01:44;99610.08;;;20.00;68.97
74403;BME280;62837;51.082;13.744;2023-09-19T00:04:15;99616.34;;;19.77;69.38
74403;BME280;62837;51.082;13.744;2023-09-19T00:06:49;99620.30;;;19.56;69.89
74403;BME280;62837;51.082;13.744;2023-09-19T00:09:19;99615.55;;;19.40;70.31
74403;BME280;62837;51.082;13.744;2023-09-19T00:11:51;99616.35;;;19.42;70.61
74403;BME280;62837;51.082;13.744;2023-09-19T00:14:24;99615.27;;;19.48;70.65
74403;BME280;62837;51.082;13.744;2023-09-19T00:16:55;99612.46;;;19.56;70.47
74403;BME280;62837;51.082;13.744;2023-09-19T00:19:27;99608.68;;;19.63;70.43
74403;BME280;62837;51.082;13.744;2023-09-19T00:21:58;99609.08;;;19.68;70.15
74403;BME280;62837;51.082;13.744;2023-09-19T00:24:29;99609.73;;;19.73;69.99
74403;BME280;62837;51.082;13.744;2023-09-19T00:27:00;99608.59;;;19.76;69.84
74403;BME280;62837;51.082;13.744;2023-09-19T00:29:31;99600.33;;;19.75;69.65
74403;BME280;62837;51.082;13.744;2023-09-19T00:32:02;99600.30;;;19.74;69.68
74403;BME280;62837;51.082;13.744;2023-09-19T00:34:34;99598.43;;;19.75;69.60
74403;BME280;62837;51.082;13.744;2023-09-19T00:37:06;99596.43;;;19.77;69.67
74403;BME280;62837;51.082;13.744;2023-09-19T00:39:36;99595.13;;;19.81;69.40
74403;BME280;62837;51.082;13.744;2023-09-19T00:42:07;99596.16;;;19.83;69.27
74403;BME280;62837;51.082;13.744;2023-09-19T00:44:39;99594.48;;;19.83;68.99
74403;BME280;62837;51.082;13.744;2023-09-19T00:47:10;99592.48;;;19.76;68.89
74403;BME280;62837;51.082;13.744;2023-09-19T00:49:47;99584.89;;;19.72;69.09
74403;BME280;62837;51.082;13.744;2023-09-19T00:52:20;99584.25;;;19.70;69.25
74403;BME280;62837;51.082;13.744;2023-09-19T00:54:53;99583.83;;;19.69;69.30
74403;BME280;62837;51.082;13.744;2023-09-19T00:57:25;99584.71;;;19.71;69.32
74403;BME280;62837;51.082;13.744;2023-09-19T00:59:56;99587.58;;;19.73;69.31
74403;BME280;62837;51.082;13.744;2023-09-19T01:02:28;99580.98;;;19.77;69.20
74403;BME280;62837;51.082;13.744;2023-09-19T01:05:00;99580.70;;;19.81;69.02
74403;BME280;62837;51.082;13.744;2023-09-19T01:07:33;99583.13;;;19.84;69.10
74403;BME280;62837;51.082;13.744;2023-09-19T01:10:06;99581.60;;;19.87;68.73
74403;BME280;62837;51.082;13.744;2023-09-19T01:12:47;99588.02;;;19.90;68.66
74403;BME280;62837;51.082;13.744;2023-09-19T01:15:32;99593.79;;;19.94;68.60
74403;BME280;62837;51.082;13.744;2023-09-19T01:18:21;99596.04;;;19.96;68.61
74403;BME280;62837;51.082;13.744;2023-09-19T01:21:04;99596.10;;;19.95;68.66
74403;BME280;62837;51.082;13.744;2023-09-19T01:23:45;99604.14;;;19.99;68.69
74403;BME280;62837;51.082;13.744;2023-09-19T01:26:34;99604.70;;;19.99;68.54
74403;BME280;62837;51.082;13.744;2023-09-19T01:29:29;99612.85;;;19.95;68.47
74403;BME280;62837;51.082;13.744;2023-09-19T01:32:05;99612.21;;;19.93;68.65
74403;BME280;62837;51.082;13.744;2023-09-19T01:34:48;99617.62;;;19.89;68.73
74403;BME280;62837;51.082;13.744;2023-09-19T01:37:20;99618.77;;;19.88;68.74
74403;BME280;62837;51.082;13.744;2023-09-19T01:39:58;99614.43;;;19.89;68.85
74403;BME280;62837;51.082;13.744;2023-09-19T01:42:43;99609.67;;;19.90;68.69
74403;BME280;62837;51.082;13.744;2023-09-19T01:45:24;99606.88;;;19.87;68.75
74403;BME280;62837;51.082;13.744;2023-09-19T01:47:59;99601.48;;;19.84;68.77
74403;BME280;62837;51.082;13.744;2023-09-19T01:50:44;99600.34;;;19.77;68.84
74403;BME280;62837;51.082;13.744;2023-09-19T01:53:25;99608.45;;;19.67;69.17
74403;BME280;62837;51.082;13.744;2023-09-19T01:55:58;99608.14;;;19.65;69.26
74403;BME280;62837;51.082;13.744;2023-09-19T01:58:34;99603.93;;;19.67;69.20
74403;BME280;62837;51.082;13.744;2023-09-19T02:01:09;99609.64;;;19.67;69.20
74403;BME280;62837;51.082;13.744;2023-09-19T02:03:43;99606.77;;;19.65;69.29
74403;BME280;62837;51.082;13.744;2023-09-19T02:06:17;99608.11;;;19.66;69.37
74403;BME280;62837;51.082;13.744;2023-09-19T02:08:48;99621.57;;;19.68;69.31
74403;BME280;62837;51.082;13.744;2023-09-19T02:11:19;99623.46;;;19.70;69.30
74403;BME280;62837;51.082;13.744;2023-09-19T02:13:51;99618.25;;;19.73;69.42
74403;BME280;62837;51.082;13.744;2023-09-19T02:16:24;99618.45;;;19.75;69.35
74403;BME280;62837;51.082;13.744;2023-09-19T02:18:55;99620.11;;;19.77;69.20
74403;BME280;62837;51.082;13.744;2023-09-19T02:21:26;99619.14;;;19.79;69.25
74403;BME280;62837;51.082;13.744;2023-09-19T02:23:58;99623.50;;;19.80;69.05
74403;BME280;62837;51.082;13.744;2023-09-19T02:26:29;99627.83;;;19.75;69.12
74403;BME280;62837;51.082;13.744;2023-09-19T02:29:00;99632.09;;;19.72;69.10
74403;BME280;62837;51.082;13.744;2023-09-19T02:31:34;99632.57;;;19.68;69.18
74403;BME280;62837;51.082;13.744;2023-09-19T02:34:05;99627.83;;;19.69;69.28
74403;BME280;62837;51.082;13.744;2023-09-19T02:36:39;99619.33;;;19.71;69.36
74403;BME280;62837;51.082;13.744;2023-09-19T02:39:10;99623.67;;;19.73;69.00
74403;BME280;62837;51.082;13.744;2023-09-19T02:41:42;99627.41;;;19.68;68.89
74403;BME280;62837;51.082;13.744;2023-09-19T02:44:13;99635.74;;;19.65;68.91
74403;BME280;62837;51.082;13.744;2023-09-19T02:46:44;99644.73;;;19.65;68.93
74403;BME280;62837;51.082;13.744;2023-09-19T02:49:15;99644.27;;;19.65;68.67
74403;BME280;62837;51.082;13.744;2023-09-19T02:51:47;99646.27;;;19.62;68.34
74403;BME280;62837;51.082;13.744;2023-09-19T02:54:18;99643.89;;;19.56;68.57
74403;BME280;62837;51.082;13.744;2023-09-19T02:56:50;99644.12;;;19.52;68.02
74403;BME280;62837;51.082;13.744;2023-09-19T02:59:23;99647.68;;;19.48;68.42
74403;BME280;62837;51.082;13.744;2023-09-19T03:01:54;99642.61;;;19.51;68.45
74403;BME280;62837;51.082;13.744;2023-09-19T03:04:25;99644.42;;;19.52;68.45
74403;BME280;62837;51.082;13.744;2023-09-19T03:06:56;99646.65;;;19.52;68.33
74403;BME280;62837;51.082;13.744;2023-09-19T03:09:30;99655.94;;;19.49;68.35
74403;BME280;62837;51.082;13.744;2023-09-19T03:12:01;99656.13;;;19.50;68.48
74403;BME280;62837;51.082;13.744;2023-09-19T03:14:34;99662.38;;;19.53;68.67
74403;BME280;62837;51.082;13.744;2023-09-19T03:17:06;99666.38;;;19.56;68.36
74403;BME280;62837;51.082;13.744;2023-09-19T03:19:39;99667.70;;;19.58;68.14
74403;BME280;62837;51.082;13.744;2023-09-19T03:22:10;99672.67;;;19.57;67.98
74403;BME280;62837;51.082;13.744;2023-09-19T03:24:41;99676.44;;;19.54;67.78
74403;BME280;62837;51.082;13.744;2023-09-19T03:27:13;99684.61;;;19.51;67.77
74403;BME280;62837;51.082;13.744;2023-09-19T03:29:44;99681.72;;;19.46;67.85
74403;BME280;62837;51.082;13.744;2023-09-19T03:32:15;99673.75;;;19.44;68.24
74403;BME280;62837;51.082;13.744;2023-09-19T03:34:45;99683.10;;;19.49;67.83
74403;BME280;62837;51.082;13.744;2023-09-19T03:37:18;99686.33;;;19.46;67.96
74403;BME280;62837;51.082;13.744;2023-09-19T03:39:49;99688.73;;;19.46;68.20
74403;BME280;62837;51.082;13.744;2023-09-19T03:42:20;99688.77;;;19.46;67.96
74403;BME280;62837;51.082;13.744;2023-09-19T03:44:55;99681.23;;;19.39;68.21
74403;BME280;62837;51.082;13.744;2023-09-19T03:47:26;99682.45;;;19.42;68.28
74403;BME280;62837;51.082;13.744;2023-09-19T03:49:57;99680.11;;;19.37;68.19
74403;BME280;62837;51.082;13.744;2023-09-19T03:52:28;99683.73;;;19.25;68.76
74403;BME280;62837;51.082;13.744;2023-09-19T03:54:59;99685.32;;;19.22;68.91
74403;BME280;62837;51.082;13.744;2023-09-19T03:57:31;99685.77;;;19.24;68.91
74403;BME280;62837;51.082;13.744;2023-09-19T04:00:02;99684.95;;;19.27;68.78
74403;BME280;62837;51.082;13.744;2023-09-19T04:02:54;99690.83;;;19.29;68.71
74403;BME280;62837;51.082;13.744;2023-09-19T04:05:24;99692.53;;;19.25;68.71
74403;BME280;62837;51.082;13.744;2023-09-19T04:07:56;99692.91;;;19.25;69.15
74403;BME280;62837;51.082;13.744;2023-09-19T04:10:27;99691.93;;;19.26;68.83
74403;BME280;62837;51.082;13.744;2023-09-19T04:12:58;99694.66;;;19.25;68.83
74403;BME280;62837;51.082;13.744;2023-09-19T04:15:28;99699.85;;;19.27;69.02
74403;BME280;62837;51.082;13.744;2023-09-19T04:18:00;99708.20;;;19.25;68.56
74403;BME280;62837;51.082;13.744;2023-09-19T04:20:31;99712.47;;;19.13;69.07
74403;BME280;62837;51.082;13.744;2023-09-19T04:23:02;99710.09;;;19.01;69.31
74403;BME280;62837;51.082;13.744;2023-09-19T04:25:34;99718.27;;;19.02;69.55
74403;BME280;62837;51.082;13.744;2023-09-19T04:28:06;99709.60;;;19.08;69.45
74403;BME280;62837;51.082;13.744;2023-09-19T04:30:36;99704.20;;;19.14;69.31
74403;BME280;62837;51.082;13.744;2023-09-19T04:33:10;99702.64;;;19.18;69.01
74403;BME280;62837;51.082;13.744;2023-09-19T04:35:41;99702.55;;;19.16;68.89
74403;BME280;62837;51.082;13.744;2023-09-19T04:38:12;99708.88;;;19.15;68.90
74403;BME280;62837;51.082;13.744;2023-09-19T04:40:45;99720.91;;;19.06;68.98
74403;BME280;62837;51.082;13.744;2023-09-19T04:43:15;99722.29;;;18.92;69.19
74403;BME280;62837;51.082;13.744;2023-09-19T04:45:46;99723.30;;;18.86;69.63
74403;BME280;62837;51.082;13.744;2023-09-19T04:48:17;99722.73;;;18.82;69.80
74403;BME280;62837;51.082;13.744;2023-09-19T04:50:49;99718.56;;;18.85;69.91
74403;BME280;62837;51.082;13.744;2023-09-19T04:53:20;99721.46;;;18.86;69.92
74403;BME280;62837;51.082;13.744;2023-09-19T04:55:52;99721.80;;;18.92;69.71
74403;BME280;62837;51.082;13.744;2023-09-19T04:58:25;99729.68;;;18.96;69.80
74403;BME280;62837;51.082;13.744;2023-09-19T05:00:56;99729.67;;;18.99;69.44
74403;BME280;62837;51.082;13.744;2023-09-19T05:03:27;99733.23;;;19.04;69.42
74403;BME280;62837;51.082;13.744;2023-09-19T05:05:58;99737.95;;;19.08;69.26
74403;BME280;62837;51.082;13.744;2023-09-19T05:08:30;99738.23;;;19.11;69.11
74403;BME280;62837;51.082;13.744;2023-09-19T05:11:02;99743.41;;;19.14;68.86
74403;BME280;62837;51.082;13.744;2023-09-19T05:13:33;99749.45;;;19.16;68.52
74403;BME280;62837;51.082;13.744;2023-09-19T05:16:04;99753.15;;;19.13;68.66
74403;BME280;62837;51.082;13.744;2023-09-19T05:18:35;99758.80;;;19.11;68.78
74403;BME280;62837;51.082;13.744;2023-09-19T05:21:06;99759.79;;;19.10;68.94
74403;BME280;62837;51.082;13.744;2023-09-19T05:23:38;99761.81;;;19.13;69.09
74403;BME280;62837;51.082;13.744;2023-09-19T05:26:09;99756.20;;;19.17;69.08
74403;BME280;62837;51.082;13.744;2023-09-19T05:28:40;99754.91;;;19.22;69.02
74403;BME280;62837;51.082;13.744;2023-09-19T05:31:12;99756.21;;;19.24;69.03
74403;BME280;62837;51.082;13.744;2023-09-19T05:33:44;99754.91;;;19.31;68.88
74403;BME280;62837;51.082;13.744;2023-09-19T05:36:14;99756.86;;;19.34;68.13
74403;BME280;62837;51.082;13.744;2023-09-19T05:38:45;99758.65;;;19.30;67.77
74403;BME280;62837;51.082;13.744;2023-09-19T05:41:19;99764.89;;;19.27;67.95
74403;BME280;62837;51.082;13.744;2023-09-19T05:43:51;99768.14;;;19.26;68.50
74403;BME280;62837;51.082;13.744;2023-09-19T05:46:22;99773.41;;;19.33;68.13
74403;BME280;62837;51.082;13.744;2023-09-19T05:48:53;99776.67;;;19.36;67.78
74403;BME280;62837;51.082;13.744;2023-09-19T05:51:24;99783.08;;;19.38;67.75
74403;BME280;62837;51.082;13.744;2023-09-19T05:53:58;99782.14;;;19.33;67.67
74403;BME280;62837;51.082;13.744;2023-09-19T05:56:29;99792.89;;;19.37;67.52
74403;BME280;62837;51.082;13.744;2023-09-19T05:58:59;99790.65;;;19.38;67.45
74403;BME280;62837;51.082;13.744;2023-09-19T06:01:30;99789.83;;;19.45;67.83
74403;BME280;62837;51.082;13.744;2023-09-19T06:04:02;99786.92;;;19.54;68.10
74403;BME280;62837;51.082;13.744;2023-09-19T06:06:43;99789.07;;;19.67;67.60
74403;BME280;62837;51.082;13.744;2023-09-19T06:09:14;99798.73;;;19.75;67.42
74403;BME280;62837;51.082;13.744;2023-09-19T06:11:44;99797.25;;;19.84;67.26
74403;BME280;62837;51.082;13.744;2023-09-19T06:14:16;99799.05;;;19.85;66.29
74403;BME280;62837;51.082;13.744;2023-09-19T06:16:47;99797.61;;;19.81;65.88
74403;BME280;62837;51.082;13.744;2023-09-19T06:19:18;99802.88;;;19.79;65.95
74403;BME280;62837;51.082;13.744;2023-09-19T06:21:53;99808.11;;;19.76;65.80
74403;BME280;62837;51.082;13.744;2023-09-19T06:24:24;99812.55;;;19.82;67.04
74403;BME280;62837;51.082;13.744;2023-09-19T06:26:55;99818.48;;;19.88;66.12
74403;BME280;62837;51.082;13.744;2023-09-19T06:29:26;99823.52;;;19.88;65.85
74403;BME280;62837;51.082;13.744;2023-09-19T06:31:56;99826.60;;;19.90;65.84
74403;BME280;62837;51.082;13.744;2023-09-19T06:34:27;99830.76;;;19.92;65.81
74403;BME280;62837;51.082;13.744;2023-09-19T06:36:58;99833.31;;;20.00;65.62
74403;BME280;62837;51.082;13.744;2023-09-19T06:39:29;99832.40;;;20.08;65.70
74403;BME280;62837;51.082;13.744;2023-09-19T06:42:00;99831.57;;;20.23;65.68
74403;BME280;62837;51.082;13.744;2023-09-19T06:44:31;99833.37;;;20.41;65.40
74403;BME280;62837;51.082;13.744;2023-09-19T06:47:02;99841.91;;;20.55;64.93
74403;BME280;62837;51.082;13.744;2023-09-19T06:49:34;99850.59;;;20.70;64.61
74403;BME280;62837;51.082;13.744;2023-09-19T06:52:07;99857.41;;;20.86;64.43
74403;BME280;62837;51.082;13.744;2023-09-19T06:54:38;99858.83;;;20.97;63.95
74403;BME280;62837;51.082;13.744;2023-09-19T06:57:09;99864.01;;;21.12;63.75
74403;BME280;62837;51.082;13.744;2023-09-19T06:59:40;99868.06;;;21.26;63.15
74403;BME280;62837;51.082;13.744;2023-09-19T07:02:11;99870.80;;;21.35;63.06
74403;BME280;62837;51.082;13.744;2023-09-19T07:04:43;99871.66;;;21.47;62.72
74403;BME280;62837;51.082;13.744;2023-09-19T07:07:14;99871.73;;;21.47;61.97
74403;BME280;62837;51.082;13.744;2023-09-19T07:09:45;99868.02;;;21.57;61.32
74403;BME280;62837;51.082;13.744;2023-09-19T07:12:18;99868.92;;;21.71;60.74
74403;BME280;62837;51.082;13.744;2023-09-19T07:14:49;99880.96;;;21.90;60.38
74403;BME280;62837;51.082;13.744;2023-09-19T07:17:20;99883.44;;;22.06;59.90
74403;BME280;62837;51.082;13.744;2023-09-19T07:19:50;99889.22;;;21.93;58.74
74403;BME280;62837;51.082;13.744;2023-09-19T07:22:21;99897.03;;;21.72;59.03
74403;BME280;62837;51.082;13.744;2023-09-19T07:24:53;99902.33;;;21.69;59.47
74403;BME280;62837;51.082;13.744;2023-09-19T07:27:24;99904.19;;;21.91;59.02
74403;BME280;62837;51.082;13.744;2023-09-19T07:29:55;99902.56;;;22.17;58.35
74403;BME280;62837;51.082;13.744;2023-09-19T07:32:26;99902.89;;;22.41;57.80
74403;BME280;62837;51.082;13.744;2023-09-19T07:34:57;99908.77;;;22.73;57.02
74403;BME280;62837;51.082;13.744;2023-09-19T07:37:28;99899.23;;;22.96;54.84
74403;BME280;62837;51.082;13.744;2023-09-19T07:40:00;99900.40;;;23.13;53.13
74403;BME280;62837;51.082;13.744;2023-09-19T07:42:32;99909.73;;;23.22;51.88
74403;BME280;62837;51.082;13.744;2023-09-19T07:45:05;99916.86;;;23.32;51.06
74403;BME280;62837;51.082;13.744;2023-09-19T07:47:37;99922.13;;;23.42;51.03
74403;BME280;62837;51.082;13.744;2023-09-19T07:50:09;99920.98;;;23.60;50.64
74403;BME280;62837;51.082;13.744;2023-09-19T07:52:40;99913.00;;;23.70;50.07
74403;BME280;62837;51.082;13.744;2023-09-19T07:55:12;99914.06;;;23.76;50.00
74403;BME280;62837;51.082;13.744;2023-09-19T07:57:47;99910.80;;;23.80;49.74
74403;BME280;62837;51.082;13.744;2023-09-19T08:00:18;99915.14;;;23.81;49.38
74403;BME280;62837;51.082;13.744;2023-09-19T08:02:49;99921.32;;;23.80;50.00
74403;BME280;62837;51.082;13.744;2023-09-19T08:05:32;99921.73;;;23.89;49.83
74403;BME280;62837;51.082;13.744;2023-09-19T08:08:04;99920.91;;;23.86;49.10
74403;BME280;62837;51.082;13.744;2023-09-19T08:10:36;99924.79;;;23.75;46.78
74403;BME280;62837;51.082;13.744;2023-09-19T08:13:09;99923.54;;;23.71;47.54
74403;BME280;62837;51.082;13.744;2023-09-19T08:15:46;99923.84;;;23.87;47.70
74403;BME280;62837;51.082;13.744;2023-09-19T08:18:17;99932.45;;;24.03;47.00
74403;BME280;62837;51.082;13.744;2023-09-19T08:20:52;99933.13;;;24.13;47.10
74403;BME280;62837;51.082;13.744;2023-09-19T08:23:23;99935.63;;;24.31;47.13
74403;BME280;62837;51.082;13.744;2023-09-19T08:25:57;99939.72;;;24.46;47.23
74403;BME280;62837;51.082;13.744;2023-09-19T08:28:36;99939.10;;;24.66;46.44
74403;BME280;62837;51.082;13.744;2023-09-19T08:31:10;99941.95;;;24.81;46.39
74403;BME280;62837;51.082;13.744;2023-09-19T08:33:41;99942.38;;;24.75;45.58
74403;BME280;62837;51.082;13.744;2023-09-19T08:36:12;99944.14;;;24.66;45.73
74403;BME280;62837;51.082;13.744;2023-09-19T08:38:43;99951.48;;;24.63;46.34
74403;BME280;62837;51.082;13.744;2023-09-19T08:41:14;99956.02;;;24.49;46.19
74403;BME280;62837;51.082;13.744;2023-09-19T08:43:47;99954.94;;;24.24;46.34
74403;BME280;62837;51.082;13.744;2023-09-19T08:46:27;99957.42;;;23.98;46.80
74403;BME280;62837;51.082;13.744;2023-09-19T08:49:05;99964.73;;;23.73;47.30
74403;BME280;62837;51.082;13.744;2023-09-19T08:51:42;99962.25;;;23.53;47.82
74403;BME280;62837;51.082;13.744;2023-09-19T08:54:24;99963.98;;;23.40;47.36
74403;BME280;62837;51.082;13.744;2023-09-19T08:56:57;99962.63;;;23.27;47.40
74403;BME280;62837;51.082;13.744;2023-09-19T08:59:31;99965.05;;;23.18;47.66
74403;BME280;62837;51.082;13.744;2023-09-19T09:02:06;99963.00;;;23.18;47.59
74403;BME280;62837;51.082;13.744;2023-09-19T09:04:42;99971.52;;;23.16;47.85
74403;BME280;62837;51.082;13.744;2023-09-19T09:07:14;99966.95;;;23.40;47.89
74403;BME280;62837;51.082;13.744;2023-09-19T09:09:46;99959.34;;;23.67;48.16
74403;BME280;62837;51.082;13.744;2023-09-19T09:12:18;99957.13;;;23.96;47.78
74403;BME280;62837;51.082;13.744;2023-09-19T09:14:48;99959.92;;;24.23;47.30
74403;BME280;62837;51.082;13.744;2023-09-19T09:17:19;99960.95;;;24.44;47.27
74403;BME280;62837;51.082;13.744;2023-09-19T09:19:50;99969.16;;;24.61;46.74
74403;BME280;62837;51.082;13.744;2023-09-19T09:22:22;99966.45;;;24.68;45.56
74403;BME280;62837;51.082;13.744;2023-09-19T09:24:55;99964.84;;;24.49;45.21
74403;BME280;62837;51.082;13.744;2023-09-19T09:27:27;99971.88;;;24.26;44.91
74403;BME280;62837;51.082;13.744;2023-09-19T09:29:58;99970.75;;;24.10;44.55
74403;BME280;62837;51.082;13.744;2023-09-19T09:32:30;99974.58;;;23.89;44.80
74403;BME280;62837;51.082;13.744;2023-09-19T09:35:08;99978.23;;;23.76;44.83
74403;BME280;62837;51.082;13.744;2023-09-19T09:37:44;99980.64;;;23.66;45.14
74403;BME280;62837;51.082;13.744;2023-09-19T09:40:17;99985.81;;;23.55;45.68
74403;BME280;62837;51.082;13.744;2023-09-19T09:43:26;99985.04;;;23.44;45.71
74403;BME280;62837;51.082;13.744;2023-09-19T09:46:12;99982.81;;;23.38;45.27
74403;BME280;62837;51.082;13.744;2023-09-19T09:49:02;99980.50;;;23.43;45.69
74403;BME280;62837;51.082;13.744;2023-09-19T09:52:02;99978.45;;;23.59;45.37
74403;BME280;62837;51.082;13.744;2023-09-19T09:54:59;99978.27;;;23.61;45.33
74403;BME280;62837;51.082;13.744;2023-09-19T09:57:35;99973.16;;;23.56;45.48
74403;BME280;62837;51.082;13.744;2023-09-19T10:00:11;99977.10;;;23.68;45.70
74403;BME280;62837;51.082;13.744;2023-09-19T10:02:50;99978.63;;;23.76;45.38
74403;BME280;62837;51.082;13.744;2023-09-19T10:05:22;99977.61;;;23.82;45.46
74403;BME280;62837;51.082;13.744;2023-09-19T10:08:11;99981.46;;;23.96;46.54
74403;BME280;62837;51.082;13.744;2023-09-19T10:10:43;99981.60;;;24.10;46.90
74403;BME280;62837;51.082;13.744;2023-09-19T10:13:27;99982.86;;;24.31;46.98
74403;BME280;62837;51.082;13.744;2023-09-19T10:16:03;99982.71;;;24.47;45.90
74403;BME280;62837;51.082;13.744;2023-09-19T10:18:40;99982.15;;;24.60;46.05
74403;BME280;62837;51.082;13.744;2023-09-19T10:21:13;99983.70;;;24.64;44.36
74403;BME280;62837;51.082;13.744;2023-09-19T10:23:45;99981.60;;;24.67;43.98
74403;BME280;62837;51.082;13.744;2023-09-19T10:26:18;99984.00;;;24.69;43.46
74403;BME280;62837;51.082;13.744;2023-09-19T10:28:51;99982.16;;;24.67;44.20
74403;BME280;62837;51.082;13.744;2023-09-19T10:31:24;99981.85;;;24.70;44.40
74403;BME280;62837;51.082;13.744;2023-09-19T10:33:56;99982.34;;;24.71;44.04
74403;BME280;62837;51.082;13.744;2023-09-19T10:36:32;99984.34;;;24.70;43.94
74403;BME280;62837;51.082;13.744;2023-09-19T10:39:06;99982.02;;;24.67;43.95
74403;BME280;62837;51.082;13.744;2023-09-19T10:41:38;99988.98;;;24.60;43.81
74403;BME280;62837;51.082;13.744;2023-09-19T10:44:09;99983.05;;;24.54;43.50
74403;BME280;62837;51.082;13.744;2023-09-19T10:46:40;99981.87;;;24.39;43.64
74403;BME280;62837;51.082;13.744;2023-09-19T10:49:12;99980.84;;;24.36;44.44
74403;BME280;62837;51.082;13.744;2023-09-19T10:51:45;99978.78;;;24.50;45.10
74403;BME280;62837;51.082;13.744;2023-09-19T10:54:21;99978.55;;;24.64;44.74
74403;BME280;62837;51.082;13.744;2023-09-19T10:56:56;99980.34;;;24.77;43.98
74403;BME280;62837;51.082;13.744;2023-09-19T10:59:28;99969.39;;;24.91;43.61
74403;BME280;62837;51.082;13.744;2023-09-19T11:02:17;99970.46;;;24.99;43.61
74403;BME280;62837;51.082;13.744;2023-09-19T11:04:49;99973.08;;;25.01;42.77
74403;BME280;62837;51.082;13.744;2023-09-19T11:07:20;99970.70;;;24.99;43.00
74403;BME280;62837;51.082;13.744;2023-09-19T11:09:52;99971.72;;;24.98;41.85
74403;BME280;62837;51.082;13.744;2023-09-19T11:18:55;99964.39;;;24.32;42.69
74403;BME280;62837;51.082;13.744;2023-09-19T11:21:54;99962.38;;;24.09;43.40
74403;BME280;62837;51.082;13.744;2023-09-19T11:24:31;99966.52;;;23.98;43.63
74403;BME280;62837;51.082;13.744;2023-09-19T11:27:15;99968.89;;;24.00;44.27
74403;BME280;62837;51.082;13.744;2023-09-19T11:29:47;99968.47;;;23.94;43.91
74403;BME280;62837;51.082;13.744;2023-09-19T11:35:59;99967.34;;;23.91;42.04
74403;BME280;62837;51.082;13.744;2023-09-19T11:39:00;99971.10;;;23.93;41.21
74403;BME280;62837;51.082;13.744;2023-09-19T11:41:44;99974.97;;;23.83;40.14
74403;BME280;62837;51.082;13.744;2023-09-19T11:44:37;99974.36;;;23.76;40.37
74403;BME280;62837;51.082;13.744;2023-09-19T11:47:12;99973.34;;;23.79;41.00
74403;BME280;62837;51.082;13.744;2023-09-19T11:49:43;99965.92;;;23.83;40.58
74403;BME280;62837;51.082;13.744;2023-09-19T11:52:22;99966.52;;;23.87;40.52
74403;BME280;62837;51.082;13.744;2023-09-19T11:54:57;99971.35;;;23.90;40.34
74403;BME280;62837;51.082;13.744;2023-09-19T11:57:31;99971.73;;;23.95;40.58
74403;BME280;62837;51.082;13.744;2023-09-19T12:00:07;99976.23;;;23.99;40.92
74403;BME280;62837;51.082;13.744;2023-09-19T12:03:08;99965.74;;;24.06;41.98
74403;BME280;62837;51.082;13.744;2023-09-19T12:05:40;99967.88;;;24.10;42.25
74403;BME280;62837;51.082;13.744;2023-09-19T12:08:11;99971.65;;;24.08;43.20
74403;BME280;62837;51.082;13.744;2023-09-19T12:10:48;99964.77;;;24.08;43.27
74403;BME280;62837;51.082;13.744;2023-09-19T12:13:21;99969.80;;;24.01;43.03
74403;BME280;62837;51.082;13.744;2023-09-19T12:15:52;99976.03;;;24.03;43.31
74403;BME280;62837;51.082;13.744;2023-09-19T12:18:29;99976.44;;;24.12;43.28
74403;BME280;62837;51.082;13.744;2023-09-19T12:21:00;99978.50;;;24.05;42.91
74403;BME280;62837;51.082;13.744;2023-09-19T12:23:32;99979.45;;;24.05;43.10
74403;BME280;62837;51.082;13.744;2023-09-19T12:26:04;99974.94;;;24.04;42.94
74403;BME280;62837;51.082;13.744;2023-09-19T12:28:44;99970.18;;;24.03;42.58
74403;BME280;62837;51.082;13.744;2023-09-19T12:31:14;99964.10;;;24.01;42.51
74403;BME280;62837;51.082;13.744;2023-09-19T12:33:47;99967.77;;;24.03;42.15
74403;BME280;62837;51.082;13.744;2023-09-19T12:36:24;99968.40;;;24.03;42.36
74403;BME280;62837;51.082;13.744;2023-09-19T12:38:59;99970.11;;;24.01;42.28
74403;BME280;62837;51.082;13.744;2023-09-19T12:41:38;99968.31;;;24.03;42.63
74403;BME280;62837;51.082;13.744;2023-09-19T12:44:11;99963.16;;;24.05;42.68
74403;BME280;62837;51.082;13.744;2023-09-19T12:46:43;99964.63;;;24.06;42.68
74403;BME280;62837;51.082;13.744;2023-09-19T12:49:18;99961.25;;;24.06;42.52
74403;BME280;62837;51.082;13.744;2023-09-19T12:51:49;99962.30;;;24.06;42.58
74403;BME280;62837;51.082;13.744;2023-09-19T12:54:25;99966.24;;;24.09;42.86
74403;BME280;62837;51.082;13.744;2023-09-19T12:57:08;99963.29;;;24.04;41.86
74403;BME280;62837;51.082;13.744;2023-09-19T12:59:39;99962.65;;;23.98;41.91
74403;BME280;62837;51.082;13.744;2023-09-19T13:02:11;99959.66;;;23.94;42.36
74403;BME280;62837;51.082;13.744;2023-09-19T13:04:54;99966.89;;;23.89;42.47
74403;BME280;62837;51.082;13.744;2023-09-19T13:07:45;99962.61;;;23.88;42.78
74403;BME280;62837;51.082;13.744;2023-09-19T13:10:19;99971.11;;;23.91;42.30
74403;BME280;62837;51.082;13.744;2023-09-19T13:12:53;99969.24;;;23.84;42.11
74403;BME280;62837;51.082;13.744;2023-09-19T13:15:24;99970.98;;;23.78;42.04
74403;BME280;62837;51.082;13.744;2023-09-19T13:17:59;99973.30;;;23.67;42.02
74403;BME280;62837;51.082;13.744;2023-09-19T13:20:32;99970.47;;;23.60;42.00
74403;BME280;62837;51.082;13.744;2023-09-19T13:23:27;99968.91;;;23.58;42.33
74403;BME280;62837;51.082;13.744;2023-09-19T13:25:58;99965.83;;;23.55;42.22
74403;BME280;62837;51.082;13.744;2023-09-19T13:28:29;99964.77;;;23.49;42.36
74403;BME280;62837;51.082;13.744;2023-09-19T13:31:00;99960.17;;;23.44;42.46
74403;BME280;62837;51.082;13.744;2023-09-19T13:33:31;99955.34;;;23.37;42.65
74403;BME280;62837;51.082;13.744;2023-09-19T13:36:02;99956.58;;;23.31;42.13